Time,TemperatureF,DewpointF,PressureIn,WindDirection,WindDirectionDegrees,WindSpeedMPH,WindSpeedGustMPH,Humidity,HourlyPrecipIn,Conditions,Clouds,dailyrainin,SoftwareType,DateUTC
2013-10-13 00:00:00,51.2,50.4,30.35,NNE,30,0.0,1.0,97,0.00,,CLR,0.00,VWS V15.00,2013-10-13 04:00:00,
2013-10-13 00:01:00,51.2,50.4,30.35,NNE,30,0.0,1.0,97,0.00,,CLR,0.00,VWS V14.01,2013-10-13 04:01:00,
2013-10-13 00:02:00,51.2,50.4,30.35,NNE,30,0.0,0.0,97,0.00,,CLR,0.00,VWS V14.01,2013-10-13 04:02:00,
2013-10-13 00:07:00,51.0,50.2,30.35,NE,45,0.0,2.0,97,0.00,,CLR,0.00,VWS V14.01,2013-10-13 04:07:00,
2013-10-13 00:12:00,50.9,50.1,30.35,NE,39,0.0,2.0,97,0.00,,CLR,0.00,VWS V14.01,2013-10-13 04:12:00,
2013-10-13 00:15:00,50.8,50.0,30.34,NE,39,0.0,0.0,97,0.00,,CLR,0.00,VWS V15.00,2013-10-13 04:15:00,
2013-10-13 00:17:00,50.7,49.9,30.35,NE,39,0.0,1.0,97,0.00,,CLR,0.00,VWS V14.01,2013-10-13 04:17:00,
2013-10-13 00:22:00,50.4,49.6,30.34,NE,39,1.0,2.0,97,0.00,,CLR,0.00,VWS V14.01,2013-10-13 04:22:00,
2013-10-13 00:27:00,50.2,49.7,30.35,NE,34,0.0,2.0,98,0.00,,CLR,0.00,VWS V14.01,2013-10-13 04:27:00,
2013-10-13 00:30:00,50.1,49.6,30.35,NE,35,0.0,1.0,98,0.00,,CLR,0.00,VWS V15.00,2013-10-13 04:30:00,
2013-10-13 00:32:00,50.1,49.6,30.35,NE,38,0.0,2.0,98,0.00,,CLR,0.00,VWS V14.01,2013-10-13 04:32:00,
2013-10-13 00:37:00,49.9,49.4,30.35,NE,50,2.0,3.0,98,0.00,,CLR,0.00,VWS V14.01,2013-10-13 04:37:00,
2013-10-13 00:42:00,49.8,49.3,30.35,NNE,33,1.0,2.0,98,0.00,,CLR,0.00,VWS V14.01,2013-10-13 04:42:00,
2013-10-13 00:45:00,49.8,49.3,30.35,NNE,30,2.0,3.0,98,0.00,,CLR,0.00,VWS V15.00,2013-10-13 04:45:00,
2013-10-13 00:47:00,49.7,49.2,30.35,NNE,31,0.0,2.0,98,0.00,,CLR,0.00,VWS V14.01,2013-10-13 04:47:00,
2013-10-13 00:52:00,49.6,49.1,30.35,NNE,25,1.0,1.0,98,0.00,,CLR,0.00,VWS V14.01,2013-10-13 04:52:00,
2013-10-13 00:57:00,49.5,49.0,30.35,NNE,20,1.0,2.0,98,0.00,,CLR,0.00,VWS V14.01,2013-10-13 04:57:00,
2013-10-13 01:00:00,49.5,49.0,30.35,NNE,20,0.0,2.0,98,0.00,,CLR,0.00,VWS V15.00,2013-10-13 05:00:00,
2013-10-13 01:02:00,49.5,49.0,30.35,NE,39,3.0,3.0,98,0.00,,CLR,0.00,VWS V14.01,2013-10-13 05:02:00,
2013-10-13 01:07:00,49.4,48.9,30.35,North,6,1.0,3.0,98,0.00,,CLR,0.00,VWS V14.01,2013-10-13 05:07:00,
2013-10-13 01:12:00,49.4,48.9,30.35,NE,34,0.0,2.0,98,0.00,,CLR,0.00,VWS V14.01,2013-10-13 05:12:00,
2013-10-13 01:15:00,49.4,48.9,30.36,NNE,32,0.0,1.0,98,0.00,,CLR,0.00,VWS V15.00,2013-10-13 05:15:00,
2013-10-13 01:17:00,49.4,48.9,30.36,NNE,30,1.0,1.0,98,0.00,,CLR,0.00,VWS V14.01,2013-10-13 05:17:00,
2013-10-13 01:22:00,49.4,48.9,30.36,NNE,32,0.0,3.0,98,0.00,,CLR,0.00,VWS V14.01,2013-10-13 05:22:00,
2013-10-13 01:27:00,49.3,48.8,30.35,NE,40,1.0,2.0,98,0.00,,CLR,0.00,VWS V14.01,2013-10-13 05:27:00,
2013-10-13 01:30:00,49.3,48.8,30.36,NE,40,0.0,2.0,98,0.00,,CLR,0.00,VWS V15.00,2013-10-13 05:30:00,
2013-10-13 01:32:00,49.2,48.7,30.35,NE,40,0.0,0.0,98,0.00,,CLR,0.00,VWS V14.01,2013-10-13 05:32:00,
2013-10-13 01:37:00,49.1,48.6,30.35,NNE,32,2.0,2.0,98,0.00,,CLR,0.00,VWS V14.01,2013-10-13 05:37:00,
2013-10-13 01:42:00,49.0,48.5,30.35,NNE,25,1.0,2.0,98,0.00,,CLR,0.00,VWS V14.01,2013-10-13 05:42:00,
2013-10-13 01:45:00,49.0,48.5,30.35,NNE,29,0.0,2.0,98,0.00,,CLR,0.00,VWS V15.00,2013-10-13 05:45:00,
2013-10-13 01:47:00,48.9,48.4,30.35,NE,44,1.0,3.0,98,0.00,,CLR,0.00,VWS V14.01,2013-10-13 05:47:00,
2013-10-13 01:52:00,48.9,48.4,30.35,NNE,20,1.0,4.0,98,0.00,,CLR,0.00,VWS V14.01,2013-10-13 05:52:00,
2013-10-13 01:57:00,48.8,48.3,30.35,NE,53,2.0,3.0,98,0.00,,CLR,0.00,VWS V14.01,2013-10-13 05:57:00,
2013-10-13 02:00:00,48.8,48.3,30.35,North,8,1.0,3.0,98,0.00,,CLR,0.00,VWS V15.00,2013-10-13 06:00:00,
2013-10-13 02:02:00,48.7,48.2,30.35,North,360,2.0,3.0,98,0.00,,CLR,0.00,VWS V14.01,2013-10-13 06:02:00,
2013-10-13 02:07:00,48.6,48.1,30.35,NNE,33,2.0,2.0,98,0.00,,CLR,0.00,VWS V14.01,2013-10-13 06:07:00,
2013-10-13 02:12:00,48.5,48.0,30.35,NE,41,0.0,3.0,98,0.00,,CLR,0.00,VWS V14.01,2013-10-13 06:12:00,
2013-10-13 02:15:00,48.4,47.9,30.35,NNW,330,0.0,2.0,98,0.00,,CLR,0.00,VWS V15.00,2013-10-13 06:15:00,
2013-10-13 02:17:00,48.3,47.8,30.35,NE,39,2.0,2.0,98,0.00,,CLR,0.00,VWS V14.01,2013-10-13 06:17:00,
2013-10-13 02:22:00,48.2,47.7,30.34,NNE,30,2.0,3.0,98,0.00,,CLR,0.00,VWS V14.01,2013-10-13 06:22:00,
2013-10-13 02:27:00,48.1,47.6,30.34,NNE,13,1.0,3.0,98,0.00,,CLR,0.00,VWS V14.01,2013-10-13 06:27:00,
2013-10-13 02:30:00,48.1,47.6,30.34,North,357,1.0,3.0,98,0.00,,CLR,0.00,VWS V15.00,2013-10-13 06:30:00,
2013-10-13 02:32:00,48.0,47.5,30.34,NE,34,1.0,2.0,98,0.00,,CLR,0.00,VWS V14.01,2013-10-13 06:32:00,
2013-10-13 02:37:00,47.8,47.3,30.34,NNE,18,1.0,2.0,98,0.00,,CLR,0.00,VWS V14.01,2013-10-13 06:37:00,
2013-10-13 02:42:00,47.7,47.2,30.34,North,10,1.0,3.0,98,0.00,,CLR,0.00,VWS V14.01,2013-10-13 06:42:00,
2013-10-13 02:45:00,47.7,47.2,30.34,NE,35,3.0,3.0,98,0.00,,CLR,0.00,VWS V15.00,2013-10-13 06:45:00,
2013-10-13 02:47:00,47.7,47.2,30.34,NNE,30,2.0,3.0,98,0.00,,CLR,0.00,VWS V14.01,2013-10-13 06:47:00,
2013-10-13 02:52:00,47.6,47.1,30.34,NE,36,3.0,3.0,98,0.00,,CLR,0.00,VWS V14.01,2013-10-13 06:52:00,
2013-10-13 02:57:00,47.6,47.1,30.33,NE,42,2.0,4.0,98,0.00,,CLR,0.00,VWS V14.01,2013-10-13 06:57:00,
2013-10-13 03:00:00,47.5,47.0,30.34,NE,43,1.0,4.0,98,0.00,,CLR,0.00,VWS V15.00,2013-10-13 07:00:00,
2013-10-13 03:02:00,47.5,47.0,30.34,NNE,25,3.0,3.0,98,0.00,,CLR,0.00,VWS V14.01,2013-10-13 07:02:00,
2013-10-13 03:07:00,47.4,46.9,30.34,NE,40,1.0,2.0,98,0.00,,CLR,0.00,VWS V14.01,2013-10-13 07:07:00,
2013-10-13 03:12:00,47.3,46.8,30.34,NE,35,0.0,3.0,98,0.00,,CLR,0.00,VWS V14.01,2013-10-13 07:12:00,
2013-10-13 03:15:00,47.2,46.7,30.34,NE,42,0.0,2.0,98,0.00,,CLR,0.00,VWS V15.00,2013-10-13 07:15:00,
2013-10-13 03:17:00,47.1,46.6,30.34,NE,43,0.0,0.0,98,0.00,,CLR,0.00,VWS V14.01,2013-10-13 07:17:00,
2013-10-13 03:22:00,47.0,46.5,30.34,NE,54,0.0,1.0,98,0.00,,CLR,0.00,VWS V14.01,2013-10-13 07:22:00,
2013-10-13 03:27:00,46.8,46.3,30.34,North,354,0.0,1.0,98,0.00,,CLR,0.00,VWS V14.01,2013-10-13 07:27:00,
2013-10-13 03:30:00,46.7,46.2,30.34,North,359,0.0,0.0,98,0.00,,CLR,0.00,VWS V15.00,2013-10-13 07:30:00,
2013-10-13 03:32:00,46.7,46.2,30.34,North,359,0.0,1.0,98,0.00,,CLR,0.00,VWS V14.01,2013-10-13 07:32:00,
2013-10-13 03:37:00,46.5,46.0,30.34,NE,34,1.0,2.0,98,0.00,,CLR,0.00,VWS V14.01,2013-10-13 07:37:00,
2013-10-13 03:42:00,46.4,46.1,30.34,NE,40,0.0,2.0,99,0.00,,CLR,0.00,VWS V14.01,2013-10-13 07:42:00,
2013-10-13 03:45:00,46.4,46.1,30.34,NNE,20,0.0,2.0,99,0.00,,CLR,0.00,VWS V15.00,2013-10-13 07:45:00,
2013-10-13 03:47:00,46.4,46.1,30.34,NNE,25,0.0,0.0,99,0.00,,CLR,0.00,VWS V14.01,2013-10-13 07:47:00,
2013-10-13 03:52:00,46.3,46.0,30.34,NE,40,2.0,2.0,99,0.00,,CLR,0.00,VWS V14.01,2013-10-13 07:52:00,
2013-10-13 03:57:00,46.3,46.0,30.34,NNE,18,0.0,2.0,99,0.00,,CLR,0.00,VWS V14.01,2013-10-13 07:57:00,
2013-10-13 04:00:00,46.3,46.0,30.34,NNE,12,1.0,3.0,99,0.00,,CLR,0.00,VWS V15.00,2013-10-13 08:00:00,
2013-10-13 04:02:00,46.3,46.0,30.34,North,9,0.0,3.0,99,0.00,,CLR,0.00,VWS V14.01,2013-10-13 08:02:00,
2013-10-13 04:07:00,46.2,45.9,30.34,NNE,18,0.0,1.0,99,0.00,,CLR,0.00,VWS V14.01,2013-10-13 08:07:00,
2013-10-13 04:12:00,46.2,45.9,30.34,NE,44,0.0,0.0,99,0.00,,CLR,0.00,VWS V14.01,2013-10-13 08:12:00,
2013-10-13 04:15:00,46.2,45.9,30.34,NNE,25,0.0,0.0,99,0.00,,CLR,0.00,VWS V15.00,2013-10-13 08:15:00,
2013-10-13 04:17:00,46.1,45.8,30.34,NE,38,0.0,0.0,99,0.00,,CLR,0.00,VWS V14.01,2013-10-13 08:17:00,
2013-10-13 04:22:00,46.1,45.8,30.34,NE,56,0.0,0.0,99,0.00,,CLR,0.00,VWS V14.01,2013-10-13 08:22:00,
2013-10-13 04:27:00,46.0,45.7,30.34,NE,45,0.0,0.0,99,0.00,,CLR,0.00,VWS V14.01,2013-10-13 08:27:00,
2013-10-13 04:30:00,46.0,45.7,30.34,NE,35,0.0,0.0,99,0.00,,CLR,0.00,VWS V15.00,2013-10-13 08:30:00,
2013-10-13 04:32:00,45.9,45.6,30.34,NNE,33,2.0,2.0,99,0.00,,CLR,0.00,VWS V14.01,2013-10-13 08:32:00,
2013-10-13 04:37:00,46.0,45.7,30.34,NNE,18,1.0,5.0,99,0.00,,CLR,0.00,VWS V14.01,2013-10-13 08:37:00,
2013-10-13 04:42:00,46.0,45.7,30.34,NNE,32,0.0,2.0,99,0.00,,CLR,0.00,VWS V14.01,2013-10-13 08:42:00,
2013-10-13 04:45:00,45.9,45.6,30.34,NE,37,1.0,2.0,99,0.00,,CLR,0.00,VWS V15.00,2013-10-13 08:45:00,
2013-10-13 04:47:00,45.9,45.6,30.34,NE,41,0.0,1.0,99,0.00,,CLR,0.00,VWS V14.01,2013-10-13 08:47:00,
2013-10-13 04:52:00,45.8,45.5,30.34,North,1,0.0,1.0,99,0.00,,CLR,0.00,VWS V14.01,2013-10-13 08:52:00,
2013-10-13 04:57:00,45.7,45.4,30.34,NE,54,0.0,1.0,99,0.00,,CLR,0.00,VWS V14.01,2013-10-13 08:57:00,
2013-10-13 05:00:00,45.7,45.4,30.34,NE,37,0.0,1.0,99,0.00,,CLR,0.00,VWS V15.00,2013-10-13 09:00:00,
2013-10-13 05:02:00,45.6,45.3,30.34,North,11,0.0,1.0,99,0.00,,CLR,0.00,VWS V14.01,2013-10-13 09:02:00,
2013-10-13 05:07:00,45.4,45.1,30.35,North,11,0.0,2.0,99,0.00,,CLR,0.00,VWS V14.01,2013-10-13 09:07:00,
2013-10-13 05:12:00,45.3,45.0,30.34,North,11,0.0,0.0,99,0.00,,CLR,0.00,VWS V14.01,2013-10-13 09:12:00,
2013-10-13 05:15:00,45.2,44.9,30.35,North,11,0.0,0.0,99,0.00,,CLR,0.00,VWS V15.00,2013-10-13 09:15:00,
2013-10-13 05:17:00,45.1,44.8,30.34,North,10,0.0,0.0,99,0.00,,CLR,0.00,VWS V14.01,2013-10-13 09:17:00,
2013-10-13 05:22:00,45.0,44.7,30.34,North,10,0.0,0.0,99,0.00,,CLR,0.00,VWS V14.01,2013-10-13 09:22:00,
2013-10-13 05:27:00,44.9,44.6,30.35,West,259,0.0,0.0,99,0.00,,CLR,0.00,VWS V14.01,2013-10-13 09:27:00,
2013-10-13 05:30:00,44.9,44.6,30.35,West,260,0.0,0.0,99,0.00,,CLR,0.00,VWS V15.00,2013-10-13 09:30:00,
2013-10-13 05:32:00,44.9,44.6,30.35,WSW,252,0.0,0.0,99,0.00,,CLR,0.00,VWS V14.01,2013-10-13 09:32:00,
2013-10-13 05:37:00,44.8,44.5,30.35,WSW,252,0.0,0.0,99,0.00,,CLR,0.00,VWS V14.01,2013-10-13 09:37:00,
2013-10-13 05:42:00,44.7,44.4,30.35,West,279,0.0,0.0,99,0.00,,CLR,0.00,VWS V14.01,2013-10-13 09:42:00,
2013-10-13 05:45:00,44.7,44.4,30.35,NNW,337,0.0,0.0,99,0.00,,CLR,0.00,VWS V15.00,2013-10-13 09:45:00,
2013-10-13 05:47:00,44.7,44.4,30.35,NNW,337,0.0,0.0,99,0.00,,CLR,0.00,VWS V14.01,2013-10-13 09:47:00,
2013-10-13 05:52:00,44.5,44.2,30.35,NNW,338,0.0,0.0,99,0.00,,CLR,0.00,VWS V14.01,2013-10-13 09:52:00,
2013-10-13 05:57:00,44.5,44.2,30.35,West,274,0.0,1.0,99,0.00,,CLR,0.00,VWS V14.01,2013-10-13 09:57:00,
2013-10-13 06:00:00,44.5,44.2,30.35,West,274,0.0,1.0,99,0.00,,CLR,0.00,VWS V15.00,2013-10-13 10:00:00,
2013-10-13 06:02:00,44.5,44.2,30.35,North,355,0.0,1.0,99,0.00,,CLR,0.00,VWS V14.01,2013-10-13 10:02:00,
2013-10-13 06:07:00,44.5,44.2,30.35,NW,326,0.0,1.0,99,0.00,,CLR,0.00,VWS V14.01,2013-10-13 10:07:00,
2013-10-13 06:12:00,44.5,44.2,30.36,NE,46,0.0,2.0,99,0.00,,CLR,0.00,VWS V14.01,2013-10-13 10:12:00,
2013-10-13 06:15:00,44.5,44.2,30.36,North,359,0.0,2.0,99,0.00,,CLR,0.00,VWS V15.00,2013-10-13 10:15:00,
2013-10-13 06:17:00,44.5,44.2,30.36,NW,311,0.0,1.0,99,0.00,,CLR,0.00,VWS V14.01,2013-10-13 10:17:00,
2013-10-13 06:22:00,44.4,44.1,30.36,NW,311,0.0,0.0,99,0.00,,CLR,0.00,VWS V14.01,2013-10-13 10:22:00,
2013-10-13 06:27:00,44.4,44.1,30.36,WNW,301,0.0,0.0,99,0.00,,CLR,0.00,VWS V14.01,2013-10-13 10:27:00,
2013-10-13 06:30:00,44.5,44.2,30.36,WNW,300,0.0,0.0,99,0.00,,CLR,0.00,VWS V15.00,2013-10-13 10:30:00,
2013-10-13 06:32:00,44.5,44.2,30.36,WNW,302,0.0,0.0,99,0.00,,CLR,0.00,VWS V14.01,2013-10-13 10:32:00,
2013-10-13 06:37:00,44.4,44.1,30.36,NNE,15,0.0,0.0,99,0.00,,CLR,0.00,VWS V14.01,2013-10-13 10:37:00,
2013-10-13 06:42:00,44.3,44.0,30.36,NNE,15,0.0,0.0,99,0.00,,CLR,0.00,VWS V14.01,2013-10-13 10:42:00,
2013-10-13 06:45:00,44.2,43.9,30.36,North,11,0.0,0.0,99,0.00,,CLR,0.00,VWS V15.00,2013-10-13 10:45:00,
2013-10-13 06:47:00,44.2,43.9,30.36,North,11,0.0,0.0,99,0.00,,CLR,0.00,VWS V14.01,2013-10-13 10:47:00,
2013-10-13 06:52:00,44.1,43.8,30.36,NNE,23,0.0,0.0,99,0.00,,CLR,0.00,VWS V14.01,2013-10-13 10:52:00,
2013-10-13 06:57:00,44.1,43.8,30.36,West,269,0.0,0.0,99,0.00,,CLR,0.00,VWS V14.01,2013-10-13 10:57:00,
2013-10-13 07:00:00,44.1,43.8,30.36,West,267,0.0,0.0,99,0.00,,CLR,0.00,VWS V15.00,2013-10-13 11:00:00,
2013-10-13 07:02:00,44.1,43.8,30.36,NE,37,0.0,0.0,99,0.00,,CLR,0.00,VWS V14.01,2013-10-13 11:02:00,
2013-10-13 07:07:00,44.0,43.7,30.36,ENE,60,0.0,0.0,99,0.00,,CLR,0.00,VWS V14.01,2013-10-13 11:07:00,
2013-10-13 07:12:00,44.0,43.7,30.37,NE,51,0.0,0.0,99,0.00,,CLR,0.00,VWS V14.01,2013-10-13 11:12:00,
2013-10-13 07:15:00,44.1,43.8,30.37,WSW,250,0.0,0.0,99,0.01,,CLR,0.01,VWS V15.00,2013-10-13 11:15:00,
2013-10-13 07:17:00,44.1,43.8,30.37,WSW,252,0.0,0.0,99,0.01,,CLR,0.01,VWS V14.01,2013-10-13 11:17:00,
2013-10-13 07:22:00,44.3,44.0,30.37,North,356,0.0,0.0,99,0.01,,CLR,0.01,VWS V14.01,2013-10-13 11:22:00,
2013-10-13 07:27:00,44.5,44.2,30.37,NNE,30,0.0,0.0,99,0.01,,CLR,0.01,VWS V14.01,2013-10-13 11:27:00,
2013-10-13 07:30:00,44.7,44.4,30.37,West,280,0.0,0.0,99,0.01,,CLR,0.01,VWS V15.00,2013-10-13 11:30:00,
2013-10-13 07:32:00,44.7,44.4,30.38,West,279,0.0,0.0,99,0.01,,CLR,0.01,VWS V14.01,2013-10-13 11:32:00,
2013-10-13 07:37:00,44.8,44.5,30.38,West,279,0.0,0.0,99,0.01,,CLR,0.01,VWS V14.01,2013-10-13 11:37:00,
2013-10-13 07:42:00,45.0,44.7,30.38,West,271,2.0,2.0,99,0.01,,CLR,0.01,VWS V14.01,2013-10-13 11:42:00,
2013-10-13 07:45:00,45.0,44.7,30.38,NW,311,0.0,2.0,99,0.01,,CLR,0.01,VWS V14.01,2013-10-13 11:45:00,
2013-10-13 07:47:00,45.1,44.8,30.38,West,264,1.0,2.0,99,0.01,,CLR,0.01,VWS V14.01,2013-10-13 11:47:00,
2013-10-13 07:52:00,45.3,45.0,30.38,WSW,252,0.0,0.0,99,0.01,,CLR,0.01,VWS V14.01,2013-10-13 11:52:00,
2013-10-13 07:57:00,45.6,45.3,30.38,WSW,249,0.0,0.0,99,0.01,,CLR,0.01,VWS V14.01,2013-10-13 11:57:00,
2013-10-13 08:00:00,45.7,45.4,30.38,NNW,328,0.0,0.0,99,0.01,,CLR,0.01,VWS V14.01,2013-10-13 12:00:00,
2013-10-13 08:02:00,45.8,45.5,30.38,North,357,0.0,0.0,99,0.01,,CLR,0.01,VWS V14.01,2013-10-13 12:02:00,
2013-10-13 08:07:00,46.1,45.8,30.38,NNE,13,0.0,0.0,99,0.01,,CLR,0.01,VWS V14.01,2013-10-13 12:07:00,
2013-10-13 08:12:00,46.2,45.9,30.39,ENE,60,0.0,1.0,99,0.01,,CLR,0.01,VWS V14.01,2013-10-13 12:12:00,
2013-10-13 08:15:00,46.3,46.0,30.38,ENE,57,0.0,1.0,99,0.01,,CLR,0.01,VWS V14.01,2013-10-13 12:15:00,
2013-10-13 08:17:00,46.4,46.1,30.38,NNW,340,0.0,2.0,99,0.00,,CLR,0.01,VWS V14.01,2013-10-13 12:17:00,
2013-10-13 08:22:00,46.7,46.4,30.39,NE,55,1.0,2.0,99,0.00,,CLR,0.01,VWS V14.01,2013-10-13 12:22:00,
2013-10-13 08:27:00,46.8,46.3,30.39,NNW,333,0.0,3.0,98,0.00,,CLR,0.01,VWS V14.01,2013-10-13 12:27:00,
2013-10-13 08:30:00,46.9,46.4,30.38,NNE,25,1.0,2.0,98,0.00,,CLR,0.01,VWS V14.01,2013-10-13 12:30:00,
2013-10-13 08:32:00,47.0,46.5,30.39,NE,51,0.0,2.0,98,0.00,,CLR,0.01,VWS V14.01,2013-10-13 12:32:00,
2013-10-13 08:37:00,47.2,46.7,30.39,NE,44,2.0,2.0,98,0.00,,CLR,0.01,VWS V14.01,2013-10-13 12:37:00,
2013-10-13 08:42:00,47.4,46.9,30.39,NE,39,2.0,2.0,98,0.00,,CLR,0.01,VWS V14.01,2013-10-13 12:42:00,
2013-10-13 08:45:00,47.7,47.2,30.39,NE,42,0.0,3.0,98,0.00,,CLR,0.01,VWS V14.01,2013-10-13 12:45:00,
2013-10-13 08:47:00,47.7,47.2,30.39,NE,49,2.0,2.0,98,0.00,,CLR,0.01,VWS V14.01,2013-10-13 12:47:00,
2013-10-13 08:52:00,47.9,47.4,30.39,North,355,1.0,2.0,98,0.00,,CLR,0.01,VWS V14.01,2013-10-13 12:52:00,
2013-10-13 08:57:00,48.3,47.8,30.39,North,11,1.0,3.0,98,0.00,,CLR,0.01,VWS V14.01,2013-10-13 12:57:00,
2013-10-13 09:00:00,48.4,47.6,30.39,NNE,20,2.0,3.0,97,0.00,,CLR,0.01,VWS V14.01,2013-10-13 13:00:00,
2013-10-13 09:02:00,48.5,47.7,30.40,North,355,1.0,2.0,97,0.00,,CLR,0.01,VWS V14.01,2013-10-13 13:02:00,
2013-10-13 09:07:00,48.8,48.0,30.40,NNW,336,1.0,3.0,97,0.00,,CLR,0.01,VWS V14.01,2013-10-13 13:07:00,
2013-10-13 09:12:00,49.1,48.3,30.40,NE,51,3.0,3.0,97,0.00,,CLR,0.01,VWS V14.01,2013-10-13 13:12:00,
2013-10-13 09:15:00,49.3,48.5,30.40,NE,41,3.0,4.0,97,0.00,,CLR,0.01,VWS V14.01,2013-10-13 13:15:00,
2013-10-13 09:17:00,49.5,48.7,30.40,NNE,25,1.0,3.0,97,0.00,,CLR,0.01,VWS V14.01,2013-10-13 13:17:00,
2013-10-13 09:22:00,50.1,49.3,30.40,NE,42,1.0,3.0,97,0.00,,CLR,0.01,VWS V14.01,2013-10-13 13:22:00,
2013-10-13 09:27:00,50.7,49.9,30.40,NNW,333,1.0,2.0,97,0.00,,CLR,0.01,VWS V14.01,2013-10-13 13:27:00,
2013-10-13 09:30:00,51.1,50.3,30.40,NNE,33,1.0,2.0,97,0.00,,CLR,0.01,VWS V14.01,2013-10-13 13:30:00,
2013-10-13 09:32:00,51.3,50.2,30.40,NNE,32,0.0,2.0,96,0.00,,CLR,0.01,VWS V14.01,2013-10-13 13:32:00,
2013-10-13 09:37:00,51.7,50.3,30.40,NNW,335,0.0,4.0,95,0.00,,CLR,0.01,VWS V14.01,2013-10-13 13:37:00,
2013-10-13 09:42:00,51.9,50.2,30.40,NE,36,3.0,3.0,94,0.00,,CLR,0.01,VWS V14.01,2013-10-13 13:42:00,
2013-10-13 09:45:00,52.1,50.1,30.40,ENE,78,1.0,6.0,93,0.00,,CLR,0.01,VWS V14.01,2013-10-13 13:45:00,
2013-10-13 09:47:00,52.2,50.0,30.40,NE,47,1.0,4.0,92,0.00,,CLR,0.01,VWS V14.01,2013-10-13 13:47:00,
2013-10-13 09:52:00,52.2,50.0,30.40,ENE,76,1.0,4.0,92,0.00,,CLR,0.01,VWS V14.01,2013-10-13 13:52:00,
2013-10-13 09:57:00,52.6,50.3,30.40,North,11,2.0,4.0,92,0.00,,CLR,0.01,VWS V14.01,2013-10-13 13:57:00,
2013-10-13 10:00:00,52.7,50.5,30.40,East,89,2.0,4.0,92,0.00,,CLR,0.01,VWS V14.01,2013-10-13 14:00:00,
2013-10-13 10:02:00,52.8,50.2,30.40,ENE,57,1.0,3.0,91,0.00,,CLR,0.01,VWS V14.01,2013-10-13 14:02:00,
2013-10-13 10:07:00,53.5,50.9,30.40,SSE,166,0.0,2.0,91,0.00,,CLR,0.01,VWS V14.01,2013-10-13 14:07:00,
2013-10-13 10:12:00,54.2,51.0,30.40,East,97,0.0,4.0,89,0.00,,CLR,0.01,VWS V14.01,2013-10-13 14:12:00,
2013-10-13 10:15:00,54.4,50.9,30.40,North,357,1.0,3.0,88,0.00,,CLR,0.01,VWS V14.01,2013-10-13 14:15:00,
2013-10-13 10:17:00,54.4,50.9,30.40,NNE,33,2.0,3.0,88,0.00,,CLR,0.01,VWS V14.01,2013-10-13 14:17:00,
2013-10-13 10:22:00,54.1,50.6,30.40,NE,53,2.0,8.0,88,0.00,,CLR,0.01,VWS V14.01,2013-10-13 14:22:00,
2013-10-13 10:27:00,54.0,50.5,30.40,NE,42,3.0,4.0,88,0.00,,CLR,0.01,VWS V14.01,2013-10-13 14:27:00,
2013-10-13 10:30:00,54.0,50.5,30.40,ENE,72,2.0,4.0,88,0.00,,CLR,0.01,VWS V14.01,2013-10-13 14:30:00,
2013-10-13 10:32:00,54.2,51.0,30.40,ENE,60,0.0,4.0,89,0.00,,CLR,0.01,VWS V14.01,2013-10-13 14:32:00,
2013-10-13 10:37:00,54.6,50.5,30.40,NNE,25,1.0,7.0,86,0.00,,CLR,0.01,VWS V14.01,2013-10-13 14:37:00,
2013-10-13 10:42:00,55.4,51.0,30.40,ENE,76,0.0,2.0,85,0.00,,CLR,0.01,VWS V14.01,2013-10-13 14:42:00,
2013-10-13 10:45:00,55.4,50.7,30.40,NE,51,2.0,7.0,84,0.00,,CLR,0.01,VWS V14.01,2013-10-13 14:45:00,
2013-10-13 10:47:00,55.3,50.6,30.40,NNE,22,2.0,7.0,84,0.00,,CLR,0.01,VWS V14.01,2013-10-13 14:47:00,
2013-10-13 10:52:00,55.4,51.0,30.40,East,86,4.0,4.0,85,0.00,,CLR,0.01,VWS V14.01,2013-10-13 14:52:00,
2013-10-13 10:57:00,55.4,49.7,30.40,NE,42,4.0,7.0,81,0.00,,CLR,0.01,VWS V14.01,2013-10-13 14:57:00,
2013-10-13 11:00:00,55.4,50.0,30.40,East,101,0.0,4.0,82,0.00,,CLR,0.01,VWS V14.01,2013-10-13 15:00:00,
2013-10-13 11:02:00,55.6,50.2,30.40,East,85,0.0,2.0,82,0.00,,CLR,0.01,VWS V14.01,2013-10-13 15:02:00,
2013-10-13 11:07:00,56.2,50.5,30.40,East,96,4.0,5.0,81,0.00,,CLR,0.01,VWS V14.01,2013-10-13 15:07:00,
2013-10-13 11:12:00,56.1,49.7,30.40,NE,40,2.0,4.0,79,0.00,,CLR,0.01,VWS V14.01,2013-10-13 15:12:00,
2013-10-13 11:15:00,56.0,49.9,30.40,NE,37,0.0,3.0,80,0.00,,CLR,0.01,VWS V14.01,2013-10-13 15:15:00,
2013-10-13 11:17:00,56.1,50.4,30.40,ENE,73,0.0,2.0,81,0.00,,CLR,0.01,VWS V14.01,2013-10-13 15:17:00,
2013-10-13 11:22:00,56.4,50.3,30.40,ENE,68,3.0,5.0,80,0.00,,CLR,0.01,VWS V14.01,2013-10-13 15:22:00,
2013-10-13 11:27:00,56.4,50.0,30.40,ESE,105,5.0,5.0,79,0.00,,CLR,0.01,VWS V14.01,2013-10-13 15:27:00,
2013-10-13 11:30:00,56.5,50.4,30.40,NNE,16,2.0,5.0,80,0.00,,CLR,0.01,VWS V14.01,2013-10-13 15:30:00,
2013-10-13 11:32:00,56.5,50.1,30.40,ENE,72,1.0,6.0,79,0.00,,CLR,0.01,VWS V14.01,2013-10-13 15:32:00,
2013-10-13 11:37:00,56.8,50.4,30.40,ENE,70,5.0,6.0,79,0.00,,CLR,0.01,VWS V14.01,2013-10-13 15:37:00,
2013-10-13 11:42:00,56.9,50.5,30.40,ENE,62,0.0,8.0,79,0.00,,CLR,0.01,VWS V14.01,2013-10-13 15:42:00,
2013-10-13 11:45:00,57.0,50.6,30.40,NNE,16,1.0,4.0,79,0.00,,CLR,0.01,VWS V14.01,2013-10-13 15:45:00,
2013-10-13 11:47:00,57.0,50.6,30.40,ENE,78,1.0,4.0,79,0.00,,CLR,0.01,VWS V14.01,2013-10-13 15:47:00,
2013-10-13 11:52:00,56.8,50.0,30.40,SSE,167,0.0,5.0,78,0.00,,CLR,0.01,VWS V14.01,2013-10-13 15:52:00,
2013-10-13 11:57:00,57.1,50.3,30.39,NNE,25,0.0,5.0,78,0.00,,CLR,0.01,VWS V14.01,2013-10-13 15:57:00,
2013-10-13 12:00:00,57.1,50.3,30.39,East,82,1.0,4.0,78,0.00,,CLR,0.01,VWS V14.01,2013-10-13 16:00:00,
2013-10-13 12:02:00,57.1,50.3,30.39,East,101,3.0,4.0,78,0.00,,CLR,0.01,VWS V14.01,2013-10-13 16:02:00,
2013-10-13 12:07:00,57.2,50.4,30.39,East,89,1.0,7.0,78,0.00,,CLR,0.01,VWS V14.01,2013-10-13 16:07:00,
2013-10-13 12:12:00,57.2,50.1,30.39,ESE,108,5.0,5.0,77,0.00,,CLR,0.01,VWS V14.01,2013-10-13 16:12:00,
2013-10-13 12:15:00,57.2,50.4,30.39,ESE,109,2.0,5.0,78,0.00,,CLR,0.01,VWS V14.01,2013-10-13 16:15:00,
2013-10-13 12:17:00,57.3,50.5,30.39,ESE,112,4.0,5.0,78,0.00,,CLR,0.01,VWS V14.01,2013-10-13 16:17:00,
2013-10-13 12:22:00,57.5,50.7,30.39,NNE,32,3.0,3.0,78,0.00,,CLR,0.01,VWS V14.01,2013-10-13 16:22:00,
2013-10-13 12:27:00,57.4,50.3,30.39,NE,51,1.0,4.0,77,0.00,,CLR,0.01,VWS V14.01,2013-10-13 16:27:00,
2013-10-13 12:30:00,57.5,50.4,30.39,NE,42,2.0,4.0,77,0.00,,CLR,0.01,VWS V14.01,2013-10-13 16:30:00,
2013-10-13 12:32:00,57.6,50.5,30.39,East,90,1.0,4.0,77,0.00,,CLR,0.01,VWS V14.01,2013-10-13 16:32:00,
2013-10-13 12:37:00,57.4,49.9,30.38,NE,51,2.0,6.0,76,0.00,,CLR,0.01,VWS V14.01,2013-10-13 16:37:00,
2013-10-13 12:42:00,57.4,50.3,30.38,East,82,2.0,4.0,77,0.00,,CLR,0.01,VWS V14.01,2013-10-13 16:42:00,
2013-10-13 12:45:00,57.3,50.2,30.38,NNE,25,1.0,4.0,77,0.00,,CLR,0.01,VWS V14.01,2013-10-13 16:45:00,
2013-10-13 12:47:00,57.2,50.1,30.38,ESE,105,0.0,4.0,77,0.00,,CLR,0.01,VWS V14.01,2013-10-13 16:47:00,
2013-10-13 12:52:00,57.4,50.3,30.38,ESE,121,1.0,5.0,77,0.00,,CLR,0.01,VWS V14.01,2013-10-13 16:52:00,
2013-10-13 12:57:00,57.8,51.0,30.38,ESE,108,0.0,2.0,78,0.00,,CLR,0.01,VWS V14.01,2013-10-13 16:57:00,
2013-10-13 13:00:00,57.8,50.7,30.38,NNE,25,4.0,4.0,77,0.00,,CLR,0.01,VWS V14.01,2013-10-13 17:00:00,
2013-10-13 13:02:00,57.6,49.8,30.38,NNE,22,2.0,5.0,75,0.00,,CLR,0.01,VWS V14.01,2013-10-13 17:02:00,
2013-10-13 13:08:00,57.3,50.2,30.37,NNE,25,2.0,6.0,77,0.00,,CLR,0.01,VWS V14.01,2013-10-13 17:08:00,
2013-10-13 13:13:00,57.2,49.7,30.37,ESE,104,0.0,5.0,76,0.00,,CLR,0.01,VWS V14.01,2013-10-13 17:13:00,
2013-10-13 13:15:00,57.3,50.2,30.37,ESE,104,0.0,2.0,77,0.00,,CLR,0.01,VWS V14.01,2013-10-13 17:15:00,
2013-10-13 13:18:00,57.5,50.4,30.37,ESE,118,0.0,3.0,77,0.00,,CLR,0.01,VWS V14.01,2013-10-13 17:18:00,
2013-10-13 13:23:00,57.7,50.5,30.37,ESE,103,1.0,2.0,77,0.00,,CLR,0.01,VWS V14.01,2013-10-13 17:23:00,
2013-10-13 13:28:00,57.7,49.8,30.37,NE,42,2.0,3.0,75,0.00,,CLR,0.01,VWS V14.01,2013-10-13 17:28:00,
2013-10-13 13:30:00,57.6,50.1,30.37,NE,49,1.0,3.0,76,0.00,,CLR,0.01,VWS V14.01,2013-10-13 17:30:00,
2013-10-13 13:33:00,57.6,49.8,30.37,East,89,1.0,2.0,75,0.00,,CLR,0.01,VWS V14.01,2013-10-13 17:33:00,
2013-10-13 13:38:00,57.4,49.5,30.37,NE,50,1.0,3.0,75,0.00,,CLR,0.01,VWS V14.01,2013-10-13 17:38:00,
2013-10-13 13:43:00,57.3,49.5,30.37,NNW,337,2.0,4.0,75,0.00,,CLR,0.01,VWS V14.01,2013-10-13 17:43:00,
2013-10-13 13:45:00,57.3,49.8,30.37,East,98,1.0,4.0,76,0.00,,CLR,0.01,VWS V14.01,2013-10-13 17:45:00,
2013-10-13 13:48:00,57.5,50.0,30.37,NNE,17,4.0,4.0,76,0.00,,CLR,0.01,VWS V14.01,2013-10-13 17:48:00,
2013-10-13 13:53:00,57.4,49.2,30.37,NNE,23,1.0,5.0,74,0.00,,CLR,0.01,VWS V14.01,2013-10-13 17:53:00,
2013-10-13 13:58:00,57.2,49.4,30.37,NE,49,1.0,4.0,75,0.00,,CLR,0.01,VWS V14.01,2013-10-13 17:58:00,
2013-10-13 14:00:00,57.3,49.5,30.37,SSE,149,0.0,3.0,75,0.00,,CLR,0.01,VWS V14.01,2013-10-13 18:00:00,
2013-10-13 14:03:00,57.5,50.0,30.37,East,82,2.0,4.0,76,0.00,,CLR,0.01,VWS V14.01,2013-10-13 18:03:00,
2013-10-13 14:08:00,57.4,49.9,30.37,ENE,70,0.0,3.0,76,0.00,,CLR,0.01,VWS V14.01,2013-10-13 18:08:00,
2013-10-13 14:13:00,57.2,49.0,30.36,NE,51,3.0,5.0,74,0.00,,CLR,0.01,VWS V14.01,2013-10-13 18:13:00,
2013-10-13 14:15:00,57.1,49.3,30.36,NNE,32,0.0,5.0,75,0.00,,CLR,0.01,VWS V14.01,2013-10-13 18:15:00,
2013-10-13 14:18:00,57.2,49.4,30.37,East,82,6.0,6.0,75,0.00,,CLR,0.01,VWS V14.01,2013-10-13 18:18:00,
2013-10-13 14:23:00,57.3,49.5,30.37,SE,132,0.0,2.0,75,0.00,,CLR,0.01,VWS V14.01,2013-10-13 18:23:00,
2013-10-13 14:28:00,57.4,49.9,30.36,ENE,68,1.0,2.0,76,0.00,,CLR,0.01,VWS V14.01,2013-10-13 18:28:00,
2013-10-13 14:30:00,57.5,50.0,30.37,East,80,0.0,1.0,76,0.00,,CLR,0.01,VWS V14.01,2013-10-13 18:30:00,
2013-10-13 14:33:00,57.4,49.5,30.37,NE,39,0.0,2.0,75,0.00,,CLR,0.01,VWS V14.01,2013-10-13 18:33:00,
2013-10-13 14:38:00,57.5,50.0,30.37,ESE,102,1.0,3.0,76,0.00,,CLR,0.01,VWS V14.01,2013-10-13 18:38:00,
2013-10-13 14:43:00,57.5,50.0,30.37,ESE,105,1.0,2.0,76,0.00,,CLR,0.01,VWS V14.01,2013-10-13 18:43:00,
2013-10-13 14:45:00,57.5,50.0,30.36,NE,56,0.0,2.0,76,0.00,,CLR,0.01,VWS V15.00,2013-10-13 18:45:00,
2013-10-13 14:48:00,57.4,49.5,30.36,NNE,17,2.0,2.0,75,0.00,,CLR,0.01,VWS V14.01,2013-10-13 18:48:00,
2013-10-13 14:53:00,57.2,49.4,30.37,NE,47,1.0,4.0,75,0.00,,CLR,0.01,VWS V14.01,2013-10-13 18:53:00,
2013-10-13 14:58:00,57.0,49.5,30.36,ESE,110,0.0,3.0,76,0.00,,CLR,0.01,VWS V14.01,2013-10-13 18:58:00,
2013-10-13 15:00:00,57.0,49.5,30.36,NNE,18,0.0,1.0,76,0.00,,CLR,0.01,VWS V14.01,2013-10-13 19:00:00,
2013-10-13 15:03:00,57.0,49.5,30.36,ENE,66,2.0,2.0,76,0.00,,CLR,0.01,VWS V14.01,2013-10-13 19:03:00,
2013-10-13 15:07:00,56.9,49.4,30.36,NNE,30,0.0,5.0,76,0.00,,CLR,0.01,VWS V14.01,2013-10-13 19:07:00,
2013-10-13 15:12:00,56.8,49.3,30.36,NNE,16,0.0,3.0,76,0.00,,CLR,0.01,VWS V14.01,2013-10-13 19:12:00,
2013-10-13 15:15:00,56.8,49.7,30.36,NNE,29,1.0,3.0,77,0.00,,CLR,0.01,VWS V14.01,2013-10-13 19:15:00,
2013-10-13 15:17:00,56.9,49.1,30.36,NE,34,3.0,3.0,75,0.00,,CLR,0.01,VWS V14.01,2013-10-13 19:17:00,
2013-10-13 15:22:00,57.0,49.5,30.36,NE,41,0.0,1.0,76,0.00,,CLR,0.01,VWS V14.01,2013-10-13 19:22:00,
2013-10-13 15:29:00,57.2,48.6,30.36,NE,43,0.0,0.0,73,0.00,,CLR,0.01,VWS V14.01,2013-10-13 19:29:00,
2013-10-13 15:30:00,57.2,48.6,30.36,North,6,2.0,3.0,73,0.00,,CLR,0.01,VWS V15.00,2013-10-13 19:30:00,
2013-10-13 15:34:00,57.2,49.4,30.35,NE,50,0.0,2.0,75,0.00,,CLR,0.01,VWS V14.01,2013-10-13 19:34:00,
2013-10-13 15:39:00,57.6,49.0,30.35,NE,35,1.0,1.0,73,0.00,,CLR,0.01,VWS V14.01,2013-10-13 19:39:00,
2013-10-13 15:44:00,57.5,48.6,30.35,NE,41,2.0,5.0,72,0.00,,CLR,0.01,VWS V14.01,2013-10-13 19:44:00,
2013-10-13 15:45:00,57.5,48.9,30.35,NE,46,2.0,5.0,73,0.00,,CLR,0.01,VWS V15.00,2013-10-13 19:45:00,
2013-10-13 15:49:00,57.3,48.7,30.36,NNE,30,1.0,3.0,73,0.00,,CLR,0.01,VWS V14.01,2013-10-13 19:49:00,
2013-10-13 15:54:00,57.3,49.1,30.36,NNE,23,3.0,3.0,74,0.00,,CLR,0.01,VWS V14.01,2013-10-13 19:54:00,
2013-10-13 15:59:00,57.0,48.8,30.35,NNE,25,2.0,5.0,74,0.00,,CLR,0.01,VWS V14.01,2013-10-13 19:59:00,
2013-10-13 16:00:00,57.0,48.8,30.35,NNE,27,3.0,4.0,74,0.00,,CLR,0.01,VWS V15.00,2013-10-13 20:00:00,
2013-10-13 16:04:00,56.8,49.0,30.35,NE,44,1.0,4.0,75,0.00,,CLR,0.01,VWS V14.01,2013-10-13 20:04:00,
2013-10-13 16:09:00,56.7,48.9,30.35,NNE,27,0.0,4.0,75,0.00,,CLR,0.01,VWS V14.01,2013-10-13 20:09:00,
2013-10-13 16:14:00,56.8,49.0,30.35,NE,34,0.0,0.0,75,0.00,,CLR,0.01,VWS V14.01,2013-10-13 20:14:00,
2013-10-13 16:15:00,56.8,49.0,30.35,NE,34,0.0,0.0,75,0.00,,CLR,0.01,VWS V15.00,2013-10-13 20:15:00,
2013-10-13 16:19:00,56.7,48.9,30.35,NE,34,0.0,0.0,75,0.00,,CLR,0.01,VWS V14.01,2013-10-13 20:19:00,
2013-10-13 16:24:00,56.6,49.1,30.35,NW,319,0.0,1.0,76,0.00,,CLR,0.01,VWS V14.01,2013-10-13 20:24:00,
2013-10-13 16:29:00,56.4,48.6,30.35,NW,323,0.0,0.0,75,0.00,,CLR,0.01,VWS V14.01,2013-10-13 20:29:00,
2013-10-13 16:30:00,56.4,48.6,30.35,NW,323,0.0,0.0,75,0.00,,CLR,0.01,VWS V15.00,2013-10-13 20:30:00,
2013-10-13 16:34:00,56.5,48.7,30.35,NW,323,0.0,1.0,75,0.00,,CLR,0.01,VWS V14.01,2013-10-13 20:34:00,
2013-10-13 16:39:00,56.5,48.7,30.34,NW,325,0.0,0.0,75,0.00,,CLR,0.01,VWS V14.01,2013-10-13 20:39:00,
2013-10-13 16:44:00,56.6,48.8,30.34,NW,321,0.0,1.0,75,0.00,,CLR,0.01,VWS V14.01,2013-10-13 20:44:00,
2013-10-13 16:45:00,56.6,48.8,30.34,NW,321,0.0,1.0,75,0.00,,CLR,0.01,VWS V15.00,2013-10-13 20:45:00,
2013-10-13 16:49:00,56.7,48.5,30.34,WNW,294,1.0,3.0,74,0.00,,CLR,0.01,VWS V14.01,2013-10-13 20:49:00,
2013-10-13 16:54:00,56.8,49.0,30.34,NNE,17,3.0,3.0,75,0.00,,CLR,0.01,VWS V14.01,2013-10-13 20:54:00,
2013-10-13 16:59:00,57.0,49.2,30.34,NE,37,2.0,4.0,75,0.00,,CLR,0.01,VWS V14.01,2013-10-13 20:59:00,
2013-10-13 17:00:00,57.0,48.8,30.34,NNE,25,3.0,4.0,74,0.00,,CLR,0.01,VWS V15.00,2013-10-13 21:00:00,
2013-10-13 17:04:00,57.0,48.8,30.34,ENE,57,4.0,4.0,74,0.00,,CLR,0.01,VWS V14.01,2013-10-13 21:04:00,
2013-10-13 17:09:00,56.9,48.7,30.34,NNE,23,2.0,3.0,74,0.00,,CLR,0.01,VWS V14.01,2013-10-13 21:09:00,
2013-10-13 17:14:00,56.5,48.3,30.34,NNE,25,4.0,5.0,74,0.00,,CLR,0.01,VWS V14.01,2013-10-13 21:14:00,
2013-10-13 17:15:00,56.4,48.2,30.34,NE,40,2.0,4.0,74,0.00,,CLR,0.01,VWS V15.00,2013-10-13 21:15:00,
2013-10-13 17:19:00,56.1,48.3,30.34,NNE,33,2.0,2.0,75,0.00,,CLR,0.01,VWS V14.01,2013-10-13 21:19:00,
2013-10-13 17:24:00,55.7,48.3,30.34,NE,40,1.0,3.0,76,0.00,,CLR,0.01,VWS V14.01,2013-10-13 21:24:00,
2013-10-13 17:29:00,55.2,48.5,30.34,NE,40,0.0,0.0,78,0.00,,CLR,0.01,VWS V14.01,2013-10-13 21:29:00,
2013-10-13 17:30:00,55.1,48.4,30.34,NE,39,0.0,0.0,78,0.00,,CLR,0.01,VWS V15.00,2013-10-13 21:30:00,
2013-10-13 17:33:00,54.5,48.5,30.34,NE,40,0.0,0.0,80,0.00,,CLR,0.01,VWS V14.01,2013-10-13 21:33:00,
2013-10-13 17:38:00,53.9,48.5,30.34,NE,40,0.0,0.0,82,0.00,,CLR,0.01,VWS V14.01,2013-10-13 21:38:00,
2013-10-13 17:43:00,53.3,48.6,30.34,NE,39,0.0,0.0,84,0.00,,CLR,0.01,VWS V14.01,2013-10-13 21:43:00,
2013-10-13 17:45:00,53.2,48.5,30.34,NE,40,0.0,0.0,84,0.00,,CLR,0.01,VWS V15.00,2013-10-13 21:45:00,
2013-10-13 17:48:00,52.7,48.6,30.34,NE,40,0.0,0.0,86,0.00,,CLR,0.01,VWS V14.01,2013-10-13 21:48:00,
2013-10-13 17:53:00,52.2,48.5,30.34,NE,40,0.0,0.0,87,0.00,,CLR,0.01,VWS V14.01,2013-10-13 21:53:00,
2013-10-13 17:58:00,51.6,48.2,30.34,NE,40,0.0,0.0,88,0.00,,CLR,0.01,VWS V14.01,2013-10-13 21:58:00,
2013-10-13 18:00:00,51.5,48.1,30.34,NE,40,0.0,0.0,88,0.00,,CLR,0.01,VWS V15.00,2013-10-13 22:00:00,
2013-10-13 18:03:00,51.3,48.2,30.34,NE,40,0.0,0.0,89,0.00,,CLR,0.01,VWS V14.01,2013-10-13 22:03:00,
2013-10-13 18:08:00,50.8,47.7,30.34,NE,39,0.0,0.0,89,0.00,,CLR,0.01,VWS V14.01,2013-10-13 22:08:00,
2013-10-13 18:13:00,50.5,47.7,30.34,NE,40,0.0,0.0,90,0.00,,CLR,0.01,VWS V14.01,2013-10-13 22:13:00,
2013-10-13 18:15:00,50.4,47.6,30.34,NE,39,0.0,0.0,90,0.00,,CLR,0.01,VWS V15.00,2013-10-13 22:15:00,
2013-10-13 18:18:00,50.2,47.7,30.34,NE,40,0.0,0.0,91,0.00,,CLR,0.01,VWS V14.01,2013-10-13 22:18:00,
2013-10-13 18:23:00,49.9,47.4,30.34,NE,40,0.0,0.0,91,0.00,,CLR,0.01,VWS V14.01,2013-10-13 22:23:00,
2013-10-13 18:28:00,49.5,47.0,30.34,NE,40,0.0,0.0,91,0.00,,CLR,0.01,VWS V14.01,2013-10-13 22:28:00,
2013-10-13 18:30:00,49.5,47.3,30.34,NE,40,0.0,0.0,92,0.00,,CLR,0.01,VWS V15.00,2013-10-13 22:30:00,
2013-10-13 18:33:00,49.3,47.1,30.34,NE,40,0.0,1.0,92,0.00,,CLR,0.01,VWS V14.01,2013-10-13 22:33:00,
2013-10-13 18:38:00,49.2,47.0,30.34,NE,39,0.0,0.0,92,0.00,,CLR,0.01,VWS V14.01,2013-10-13 22:38:00,
2013-10-13 18:43:00,49.2,47.0,30.34,ENE,64,0.0,0.0,92,0.00,,CLR,0.01,VWS V14.01,2013-10-13 22:43:00,
2013-10-13 18:45:00,49.1,46.9,30.34,ENE,63,0.0,0.0,92,0.00,,CLR,0.01,VWS V15.00,2013-10-13 22:45:00,
2013-10-13 18:48:00,49.1,46.9,30.34,ENE,64,0.0,0.0,92,0.00,,CLR,0.01,VWS V14.01,2013-10-13 22:48:00,
2013-10-13 18:53:00,48.8,46.6,30.34,ENE,64,0.0,0.0,92,0.00,,CLR,0.01,VWS V14.01,2013-10-13 22:53:00,
2013-10-13 18:58:00,48.7,46.5,30.34,ENE,64,0.0,0.0,92,0.00,,CLR,0.01,VWS V14.01,2013-10-13 22:58:00,
2013-10-13 19:00:00,48.6,46.4,30.35,ENE,64,0.0,0.0,92,0.00,,CLR,0.01,VWS V15.00,2013-10-13 23:00:00,
2013-10-13 19:03:00,48.5,46.3,30.35,ENE,64,0.0,0.0,92,0.00,,CLR,0.01,VWS V14.01,2013-10-13 23:03:00,
2013-10-13 19:08:00,48.4,46.5,30.34,ENE,64,0.0,0.0,93,0.00,,CLR,0.01,VWS V14.01,2013-10-13 23:08:00,
2013-10-13 19:13:00,48.4,46.5,30.35,ENE,64,0.0,0.0,93,0.00,,CLR,0.01,VWS V14.01,2013-10-13 23:13:00,
2013-10-13 19:15:00,48.4,46.5,30.35,ENE,63,0.0,0.0,93,0.00,,CLR,0.01,VWS V15.00,2013-10-13 23:15:00,
2013-10-13 19:18:00,48.3,46.4,30.35,ENE,63,0.0,0.0,93,0.00,,CLR,0.01,VWS V14.01,2013-10-13 23:18:00,
2013-10-13 19:23:00,48.1,46.2,30.35,ENE,64,0.0,0.0,93,0.00,,CLR,0.01,VWS V14.01,2013-10-13 23:23:00,
2013-10-13 19:28:00,47.8,45.9,30.35,ENE,63,0.0,0.0,93,0.00,,CLR,0.01,VWS V14.01,2013-10-13 23:28:00,
2013-10-13 19:30:00,47.7,45.8,30.35,ENE,63,0.0,0.0,93,0.00,,CLR,0.01,VWS V15.00,2013-10-13 23:30:00,
2013-10-13 19:33:00,47.5,45.9,30.35,ENE,64,0.0,0.0,94,0.00,,CLR,0.01,VWS V14.01,2013-10-13 23:33:00,
2013-10-13 19:38:00,47.2,45.6,30.35,ENE,64,0.0,0.0,94,0.00,,CLR,0.01,VWS V14.01,2013-10-13 23:38:00,
2013-10-13 19:43:00,46.9,45.3,30.35,ENE,63,0.0,0.0,94,0.00,,CLR,0.01,VWS V14.01,2013-10-13 23:43:00,
2013-10-13 19:45:00,46.9,45.5,30.35,ENE,63,0.0,0.0,95,0.00,,CLR,0.01,VWS V15.00,2013-10-13 23:45:00,
2013-10-13 19:48:00,46.7,45.3,30.35,ENE,64,0.0,0.0,95,0.00,,CLR,0.01,VWS V14.01,2013-10-13 23:48:00,
2013-10-13 19:53:00,46.5,45.2,30.35,ENE,64,0.0,0.0,95,0.00,,CLR,0.01,VWS V14.01,2013-10-13 23:53:00,
2013-10-13 19:58:00,46.4,45.3,30.35,ENE,63,0.0,0.0,96,0.00,,CLR,0.01,VWS V14.01,2013-10-13 23:58:00,
2013-10-13 20:00:00,46.4,45.3,30.35,ENE,64,0.0,0.0,96,0.00,,CLR,0.01,VWS V15.00,2013-10-14 00:00:00,
2013-10-13 20:03:00,46.3,45.2,30.35,ENE,64,0.0,0.0,96,0.00,,CLR,0.01,VWS V14.01,2013-10-14 00:03:00,
2013-10-13 20:08:00,46.1,45.0,30.35,ENE,63,0.0,0.0,96,0.00,,CLR,0.01,VWS V14.01,2013-10-14 00:08:00,
2013-10-13 20:13:00,45.9,44.8,30.35,ENE,64,0.0,0.0,96,0.00,,CLR,0.01,VWS V14.01,2013-10-14 00:13:00,
2013-10-13 20:15:00,45.8,44.7,30.35,ENE,64,0.0,0.0,96,0.00,,CLR,0.01,VWS V15.00,2013-10-14 00:15:00,
2013-10-13 20:18:00,45.7,44.6,30.35,ENE,64,0.0,0.0,96,0.00,,CLR,0.01,VWS V14.01,2013-10-14 00:18:00,
2013-10-13 20:23:00,45.7,44.9,30.35,ENE,64,0.0,0.0,97,0.00,,CLR,0.01,VWS V14.01,2013-10-14 00:23:00,
2013-10-13 20:28:00,45.6,44.8,30.35,ENE,63,0.0,0.0,97,0.00,,CLR,0.01,VWS V14.01,2013-10-14 00:28:00,
2013-10-13 20:30:00,45.5,44.7,30.35,ENE,63,0.0,0.0,97,0.00,,CLR,0.01,VWS V15.00,2013-10-14 00:30:00,
2013-10-13 20:33:00,45.5,44.7,30.35,ENE,63,0.0,0.0,97,0.00,,CLR,0.01,VWS V14.01,2013-10-14 00:33:00,
2013-10-13 20:38:00,45.5,44.7,30.36,ENE,64,0.0,0.0,97,0.00,,CLR,0.01,VWS V14.01,2013-10-14 00:38:00,
2013-10-13 20:43:00,45.5,44.7,30.36,ENE,64,0.0,0.0,97,0.00,,CLR,0.01,VWS V14.01,2013-10-14 00:43:00,
2013-10-13 20:45:00,45.5,44.7,30.36,WNW,294,1.0,1.0,97,0.00,,CLR,0.01,VWS V15.00,2013-10-14 00:45:00,
2013-10-13 20:48:00,45.6,45.1,30.36,West,279,0.0,1.0,98,0.00,,CLR,0.01,VWS V14.01,2013-10-14 00:48:00,
2013-10-13 20:53:00,45.5,44.7,30.36,West,280,0.0,0.0,97,0.00,,CLR,0.01,VWS V14.01,2013-10-14 00:53:00,
2013-10-13 20:58:00,45.3,44.5,30.36,West,280,0.0,1.0,97,0.00,,CLR,0.01,VWS V14.01,2013-10-14 00:58:00,
2013-10-13 21:00:00,45.3,44.5,30.36,West,279,0.0,0.0,97,0.00,,CLR,0.01,VWS V15.00,2013-10-14 01:00:00,
2013-10-13 21:03:00,45.2,44.4,30.36,West,279,0.0,0.0,97,0.00,,CLR,0.01,VWS V14.01,2013-10-14 01:03:00,
2013-10-13 21:08:00,45.0,44.2,30.36,West,280,0.0,0.0,97,0.00,,CLR,0.01,VWS V14.01,2013-10-14 01:08:00,
2013-10-13 21:13:00,44.8,44.0,30.36,West,280,0.0,0.0,97,0.00,,CLR,0.01,VWS V14.01,2013-10-14 01:13:00,
2013-10-13 21:15:00,44.8,44.3,30.36,West,280,0.0,0.0,98,0.00,,CLR,0.01,VWS V15.00,2013-10-14 01:15:00,
2013-10-13 21:18:00,44.7,44.2,30.36,West,280,0.0,0.0,98,0.00,,CLR,0.01,VWS V14.01,2013-10-14 01:18:00,
2013-10-13 21:23:00,44.6,44.1,30.36,West,280,0.0,0.0,98,0.00,,CLR,0.01,VWS V14.01,2013-10-14 01:23:00,
2013-10-13 21:28:00,44.5,44.0,30.36,West,279,0.0,0.0,98,0.00,,CLR,0.01,VWS V14.01,2013-10-14 01:28:00,
2013-10-13 21:30:00,44.4,43.9,30.36,West,279,0.0,0.0,98,0.00,,CLR,0.01,VWS V15.00,2013-10-14 01:30:00,
2013-10-13 21:33:00,44.3,43.8,30.36,West,280,0.0,0.0,98,0.00,,CLR,0.01,VWS V14.01,2013-10-14 01:33:00,
2013-10-13 21:38:00,44.3,43.8,30.36,West,279,0.0,1.0,98,0.00,,CLR,0.01,VWS V14.01,2013-10-14 01:38:00,
2013-10-13 21:43:00,44.5,44.0,30.37,West,280,0.0,0.0,98,0.00,,CLR,0.01,VWS V14.01,2013-10-14 01:43:00,
2013-10-13 21:45:00,44.6,44.1,30.37,West,280,0.0,1.0,98,0.00,,CLR,0.01,VWS V15.00,2013-10-14 01:45:00,
2013-10-13 21:48:00,44.6,44.1,30.37,West,280,0.0,0.0,98,0.00,,CLR,0.01,VWS V14.01,2013-10-14 01:48:00,
2013-10-13 21:53:00,44.5,44.0,30.36,West,280,0.0,0.0,98,0.00,,CLR,0.01,VWS V14.01,2013-10-14 01:53:00,
2013-10-13 21:58:00,44.3,43.8,30.36,West,279,0.0,0.0,98,0.00,,CLR,0.01,VWS V14.01,2013-10-14 01:58:00,
2013-10-13 22:00:00,44.3,43.8,30.36,West,280,0.0,0.0,98,0.00,,CLR,0.01,VWS V15.00,2013-10-14 02:00:00,
2013-10-13 22:03:00,44.4,43.9,30.36,West,279,0.0,0.0,98,0.00,,CLR,0.01,VWS V14.01,2013-10-14 02:03:00,
2013-10-13 22:08:00,44.4,43.9,30.36,West,279,0.0,0.0,98,0.00,,CLR,0.01,VWS V14.01,2013-10-14 02:08:00,
2013-10-13 22:13:00,44.5,44.2,30.36,West,280,0.0,1.0,99,0.00,,CLR,0.01,VWS V14.01,2013-10-14 02:13:00,
2013-10-13 22:15:00,44.5,44.2,30.36,West,280,0.0,1.0,99,0.00,,CLR,0.01,VWS V15.00,2013-10-14 02:15:00,
2013-10-13 22:18:00,44.6,44.3,30.36,West,271,0.0,1.0,99,0.00,,CLR,0.01,VWS V14.01,2013-10-14 02:18:00,
2013-10-13 22:23:00,44.5,44.2,30.36,West,271,0.0,0.0,99,0.00,,CLR,0.01,VWS V14.01,2013-10-14 02:23:00,
2013-10-13 22:28:00,44.3,43.8,30.36,West,271,0.0,0.0,98,0.00,,CLR,0.01,VWS V14.01,2013-10-14 02:28:00,
2013-10-13 22:30:00,44.2,43.7,30.37,West,271,0.0,0.0,98,0.00,,CLR,0.01,VWS V15.00,2013-10-14 02:30:00,
2013-10-13 22:33:00,44.2,43.7,30.37,West,271,0.0,0.0,98,0.00,,CLR,0.01,VWS V14.01,2013-10-14 02:33:00,
2013-10-13 22:38:00,44.0,43.5,30.37,West,271,0.0,0.0,98,0.00,,CLR,0.01,VWS V14.01,2013-10-14 02:38:00,
2013-10-13 22:43:00,43.8,43.3,30.36,West,271,0.0,0.0,98,0.00,,CLR,0.01,VWS V14.01,2013-10-14 02:43:00,
2013-10-13 22:45:00,43.7,43.2,30.36,West,271,0.0,0.0,98,0.00,,CLR,0.01,VWS V15.00,2013-10-14 02:45:00,
2013-10-13 22:48:00,43.6,43.1,30.36,West,271,0.0,0.0,98,0.00,,CLR,0.01,VWS V14.01,2013-10-14 02:48:00,
2013-10-13 22:53:00,43.4,42.9,30.36,West,271,0.0,0.0,98,0.00,,CLR,0.01,VWS V14.01,2013-10-14 02:53:00,
2013-10-13 22:57:00,43.2,42.7,30.36,West,271,0.0,0.0,98,0.00,,CLR,0.01,VWS V14.01,2013-10-14 02:57:00,
2013-10-13 23:00:00,43.1,42.6,30.36,West,271,0.0,0.0,98,0.00,,CLR,0.01,VWS V15.00,2013-10-14 03:00:00,
2013-10-13 23:02:00,43.1,42.6,30.36,West,271,0.0,0.0,98,0.00,,CLR,0.01,VWS V14.01,2013-10-14 03:02:00,
2013-10-13 23:07:00,42.9,42.4,30.36,West,271,0.0,0.0,98,0.00,,CLR,0.01,VWS V14.01,2013-10-14 03:07:00,
2013-10-13 23:12:00,42.8,42.3,30.36,West,271,0.0,0.0,98,0.00,,CLR,0.01,VWS V14.01,2013-10-14 03:12:00,
2013-10-13 23:15:00,42.7,42.4,30.36,West,271,0.0,0.0,99,0.00,,CLR,0.01,VWS V15.00,2013-10-14 03:15:00,
2013-10-13 23:17:00,42.7,42.4,30.36,West,271,0.0,0.0,99,0.00,,CLR,0.01,VWS V14.01,2013-10-14 03:17:00,
2013-10-13 23:22:00,42.6,42.3,30.36,West,271,0.0,0.0,99,0.00,,CLR,0.01,VWS V14.01,2013-10-14 03:22:00,
2013-10-13 23:27:00,42.5,42.2,30.36,West,271,0.0,0.0,99,0.00,,CLR,0.01,VWS V14.01,2013-10-14 03:27:00,
2013-10-13 23:30:00,42.5,42.2,30.36,West,271,0.0,0.0,99,0.00,,CLR,0.01,VWS V15.00,2013-10-14 03:30:00,
2013-10-13 23:32:00,42.5,42.2,30.36,West,271,0.0,0.0,99,0.00,,CLR,0.01,VWS V14.01,2013-10-14 03:32:00,
2013-10-13 23:37:00,42.3,42.0,30.35,West,271,0.0,0.0,99,0.00,,CLR,0.01,VWS V14.01,2013-10-14 03:37:00,
2013-10-13 23:42:00,42.3,42.0,30.36,West,271,0.0,0.0,99,0.00,,CLR,0.01,VWS V14.01,2013-10-14 03:42:00,
2013-10-13 23:45:00,42.2,41.9,30.36,West,271,0.0,0.0,99,0.00,,CLR,0.01,VWS V15.00,2013-10-14 03:45:00,
2013-10-13 23:47:00,42.2,41.9,30.36,West,271,0.0,0.0,99,0.00,,CLR,0.01,VWS V14.01,2013-10-14 03:47:00,
2013-10-13 23:52:00,42.2,41.9,30.36,West,271,0.0,0.0,99,0.00,,CLR,0.01,VWS V14.01,2013-10-14 03:52:00,
2013-10-13 23:57:00,42.1,41.8,30.35,West,271,0.0,0.0,99,0.00,,CLR,0.01,VWS V14.01,2013-10-14 03:57:00,